Time;durP1;ratioP1;P1;durP2;ratioP2;P2;SDS_P1;SDS_P2;PMS_P1;PMS_P2;Temp;Humidity;BMP_temperature;BMP_pressure;BME280_temperature;BME280_humidity;BME280_pressure;Samples;Min_cycle;Max_cycle;Signal;HPM_P1;HPM_P2
2022/06/20 00:02:28;;;;;;;14.30;6.70;;;22.10;79.30;;;;;;5060579;28;20125;-91
2022/06/20 00:05:30;;;;;;;18.40;8.20;;;22.00;80.50;;;;;;5058931;28;20045;-92
2022/06/20 00:08:19;;;;;;;18.05;7.45;;;21.90;81.40;;;;;;5080385;28;20582;-92
2022/06/20 00:11:12;;;;;;;18.42;6.75;;;21.80;86.20;;;;;;5081766;28;20045;-89
2022/06/20 00:13:59;;;;;;;;;;;21.70;85.20;;;;;;5088873;28;20032;-90
2022/06/20 00:16:47;;;;;;;17.38;7.00;;;21.70;86.80;;;;;;5083240;28;19947;-85
2022/06/20 00:19:34;;;;;;;12.68;6.65;;;21.60;88.20;;;;;;5076967;28;20075;-91
2022/06/20 00:22:21;;;;;;;22.13;8.48;;;21.60;89.00;;;;;;5079729;28;20075;-92
2022/06/20 00:25:09;;;;;;;17.77;7.53;;;21.50;89.00;;;;;;5074596;28;20147;-91
2022/06/20 00:27:57;;;;;;;16.80;8.23;;;21.50;89.60;;;;;;5062551;28;20044;-94
2022/06/20 00:30:44;;;;;;;13.77;7.43;;;21.40;90.20;;;;;;5065562;28;20091;-94
2022/06/20 00:33:34;;;;;;;19.55;8.20;;;21.40;90.70;;;;;;5076203;28;20044;-94
2022/06/20 00:36:21;;;;;;;21.40;7.55;;;21.40;91.30;;;;;;5081575;28;20044;-95
2022/06/20 00:39:11;;;;;;;17.17;8.57;;;21.40;92.40;;;;;;5061494;28;20178;-91
2022/06/20 00:42:00;;;;;;;23.50;7.68;;;21.50;92.00;;;;;;5060780;28;20086;-90
2022/06/20 00:44:53;;;;;;;20.85;7.72;;;21.60;93.00;;;;;;5051524;28;20040;-92
2022/06/20 00:47:41;;;;;;;25.63;8.07;;;21.80;91.60;;;;;;5054814;28;20048;-93
2022/06/20 00:50:32;;;;;;;22.52;8.15;;;22.00;90.60;;;;;;5060509;28;20052;-89
2022/06/20 00:53:46;;;;;;;19.15;7.47;;;22.10;90.50;;;;;;5066802;28;20053;-93
2022/06/20 00:56:50;;;;;;;29.95;9.48;;;22.20;90.00;;;;;;5074799;28;20044;-94
2022/06/20 00:59:42;;;;;;;23.20;10.25;;;22.00;98.40;;;;;;5067541;28;20044;-93
2022/06/20 01:02:36;;;;;;;18.77;9.60;;;21.40;99.90;;;;;;5068322;28;20044;-93
2022/06/20 01:05:30;;;;;;;17.92;10.05;;;21.00;99.90;;;;;;5059096;28;20044;-92
2022/06/20 01:08:29;;;;;;;20.73;8.85;;;20.70;99.90;;;;;;5062220;28;21593;-93
2022/06/20 01:11:27;;;;;;;18.90;8.23;;;20.50;99.90;;;;;;5078750;28;20045;-93
2022/06/20 01:14:33;;;;;;;24.35;10.25;;;20.30;99.90;;;;;;5084357;28;20102;-89
2022/06/20 01:17:36;;;;;;;24.45;10.20;;;20.30;99.90;;;;;;5089812;28;20128;-90
2022/06/20 01:20:29;;;;;;;25.75;11.20;;;20.20;99.90;;;;;;5085904;28;20044;-91
2022/06/20 01:23:41;;;;;;;20.42;10.80;;;20.10;99.90;;;;;;5083013;28;20068;-93
2022/06/20 01:26:56;;;;;;;21.35;10.32;;;20.00;99.90;;;;;;5075676;28;20064;-93
2022/06/20 01:29:52;;;;;;;21.63;10.65;;;20.00;99.90;;;;;;5079859;28;20048;-89
2022/06/20 01:32:44;;;;;;;22.15;10.70;;;20.00;99.90;;;;;;5074301;28;20041;-90
2022/06/20 01:38:43;;;;;;;18.58;8.98;;;20.00;99.90;;;;;;5079697;28;20045;-93
2022/06/20 01:44:43;;;;;;;21.02;9.25;;;19.80;99.90;;;;;;5066117;28;20037;-94
2022/06/20 01:47:32;;;;;;;17.35;8.90;;;19.90;99.90;;;;;;5071484;28;20102;-94
2022/06/20 01:50:20;;;;;;;17.05;9.55;;;20.00;99.90;;;;;;5075899;28;20040;-93
2022/06/20 01:53:11;;;;;;;20.35;10.40;;;20.00;99.90;;;;;;5078571;28;20127;-92
2022/06/20 01:56:00;;;;;;;23.08;10.32;;;19.90;99.90;;;;;;5080748;28;20114;-92
2022/06/20 01:59:03;;;;;;;19.02;9.38;;;19.90;99.90;;;;;;5069941;28;20045;-92
2022/06/20 02:01:51;;;;;;;23.10;8.07;;;19.80;99.90;;;;;;5085640;28;20048;-93
2022/06/20 02:04:39;;;;;;;18.90;8.95;;;19.80;99.90;;;;;;5082762;28;20106;-93
2022/06/20 02:07:26;;;;;;;17.70;8.32;;;20.00;99.90;;;;;;5059380;28;20129;-93
2022/06/20 02:10:23;;;;;;;23.30;10.65;;;20.20;99.90;;;;;;5067535;28;20126;-92
2022/06/20 02:13:13;;;;;;;20.25;9.60;;;20.30;99.90;;;;;;5079678;28;20044;-94
2022/06/20 02:16:08;;;;;;;22.45;9.98;;;20.30;99.90;;;;;;5082298;28;20143;-92
2022/06/20 02:19:01;;;;;;;21.65;11.00;;;20.20;99.90;;;;;;5076016;28;20040;-91
2022/06/20 02:21:59;;;;;;;21.80;10.50;;;20.20;99.90;;;;;;5071472;28;20453;-93
2022/06/20 02:24:50;;;;;;;20.35;9.10;;;20.10;99.90;;;;;;5066875;28;20114;-93
2022/06/20 02:28:05;;;;;;;25.13;10.32;;;20.00;99.90;;;;;;5065881;28;20138;-92
2022/06/20 02:30:52;;;;;;;24.50;10.50;;;20.00;99.90;;;;;;5074345;28;20118;-93
2022/06/20 02:33:39;;;;;;;19.00;11.15;;;20.00;99.90;;;;;;5069425;28;20094;-92
2022/06/20 02:36:29;;;;;;;41.78;14.50;;;20.00;99.90;;;;;;5077272;28;20052;-93
2022/06/20 02:39:19;;;;;;;51.53;19.10;;;20.10;99.90;;;;;;5072411;28;20094;-90
2022/06/20 02:42:16;;;;;;;29.08;11.07;;;19.80;99.90;;;;;;5072545;28;20087;-88
2022/06/20 02:45:07;;;;;;;25.00;8.32;;;19.40;99.90;;;;;;5063554;28;20049;-87
2022/06/20 02:47:59;;;;;;;29.98;10.80;;;19.70;99.90;;;;;;5054800;28;20134;-88
2022/06/20 02:50:50;;;;;;;25.95;11.35;;;19.50;99.90;;;;;;5068955;28;20044;-87
2022/06/20 02:53:47;;;;;;;26.80;13.25;;;19.10;99.90;;;;;;5067000;28;20052;-89
2022/06/20 02:56:41;;;;;;;26.30;10.82;;;19.00;99.90;;;;;;5074329;28;20113;-89
2022/06/20 02:59:34;;;;;;;31.13;10.73;;;19.10;99.90;;;;;;5073728;28;20123;-88
2022/06/20 03:02:27;;;;;;;22.58;9.77;;;19.00;99.90;;;;;;5067231;28;20083;-90
2022/06/20 03:05:15;;;;;;;29.85;13.77;;;19.00;99.90;;;;;;5054987;28;20406;-91
2022/06/20 03:08:05;;;;;;;33.75;16.60;;;18.90;99.90;;;;;;5071266;28;20045;-91
2022/06/20 03:10:54;;;;;;;30.20;14.65;;;18.70;99.90;;;;;;5066607;28;20110;-91
2022/06/20 03:13:42;;;;;;;32.08;12.30;;;18.50;99.90;;;;;;5078746;28;20368;-89
2022/06/20 03:16:31;;;;;;;42.72;15.18;;;18.70;99.90;;;;;;5063309;28;20055;-90
2022/06/20 03:19:27;;;;;;;28.85;12.65;;;18.70;99.90;;;;;;5071946;28;20135;-88
2022/06/20 03:22:19;;;;;;;27.85;11.50;;;18.70;99.90;;;;;;5081281;28;20044;-90
2022/06/20 03:25:12;;;;;;;29.75;12.40;;;18.70;99.90;;;;;;5082393;28;20060;-89
2022/06/20 03:28:02;;;;;;;21.52;11.88;;;18.70;99.90;;;;;;5076549;28;20102;-88
2022/06/20 03:31:10;;;;;;;30.98;13.02;;;18.80;99.90;;;;;;5054009;28;20127;-89
2022/06/20 03:33:57;;;;;;;26.95;11.88;;;18.80;99.90;;;;;;5081360;28;20464;-89
2022/06/20 03:36:48;;;;;;;28.65;11.77;;;18.80;99.90;;;;;;5053827;28;20044;-89
2022/06/20 03:39:37;;;;;;;29.10;11.32;;;18.70;99.90;;;;;;5081687;28;20149;-89
2022/06/20 03:42:26;;;;;;;24.48;11.73;;;18.60;99.90;;;;;;5084805;28;20048;-90
2022/06/20 03:45:15;;;;;;;23.92;11.73;;;18.70;99.90;;;;;;5086711;28;20086;-90
2022/06/20 03:48:16;;;;;;;22.50;11.25;;;18.70;99.90;;;;;;5079603;28;20064;-88
2022/06/20 03:51:18;;;;;;;25.92;11.38;;;18.90;99.90;;;;;;5088776;28;20024;-85
2022/06/20 03:54:12;;;;;;;21.27;10.98;;;18.90;99.90;;;;;;5084246;28;20093;-83
2022/06/20 03:57:16;;;;;;;23.27;11.77;;;18.90;99.90;;;;;;5081571;28;20060;-89
2022/06/20 04:00:08;;;;;;;26.83;14.60;;;19.00;99.90;;;;;;5078062;28;20099;-91
2022/06/20 04:07:31;;;;;;;25.08;11.95;;;18.60;99.90;;;;;;5069375;28;20062;-91
2022/06/20 04:13:51;;;;;;;41.10;15.77;;;18.40;99.90;;;;;;5073012;28;20178;-91
2022/06/20 04:16:50;;;;;;;30.00;17.42;;;18.20;99.90;;;;;;5055529;28;20102;-88
2022/06/20 04:40:03;;;;;;;53.03;28.40;;;17.80;99.90;;;;;;5104411;22;20277;-92
2022/06/20 04:43:04;;;;;;;49.97;28.38;;;17.80;99.90;;;;;;5081279;28;20039;-90
2022/06/20 04:46:03;;;;;;;44.85;25.42;;;17.80;99.90;;;;;;5072309;28;20153;-87
2022/06/20 04:48:53;;;;;;;48.42;25.63;;;17.70;99.90;;;;;;5074050;28;20125;-90
2022/06/20 04:51:42;;;;;;;38.53;23.48;;;17.70;99.90;;;;;;5094805;28;20199;-89
2022/06/20 04:54:29;;;;;;;45.78;26.40;;;17.60;99.90;;;;;;5080442;28;20048;-88
2022/06/20 04:57:19;;;;;;;53.15;28.80;;;17.60;99.90;;;;;;5088708;28;20051;-89
2022/06/20 05:00:14;;;;;;;45.45;26.70;;;17.80;99.90;;;;;;5080932;28;20044;-90
2022/06/20 05:03:04;;;;;;;46.50;26.17;;;17.90;99.90;;;;;;5083719;28;20082;-90
2022/06/20 05:05:55;;;;;;;44.60;25.27;;;18.00;99.90;;;;;;5098430;28;20051;-90
2022/06/20 05:08:47;;;;;;;38.85;24.25;;;18.20;99.90;;;;;;5094492;28;20345;-91
2022/06/20 05:11:47;;;;;;;40.70;23.42;;;18.20;99.90;;;;;;5094565;28;20083;-90
2022/06/20 05:14:47;;;;;;;40.63;22.20;;;18.40;99.90;;;;;;5095056;28;20048;-89
2022/06/20 05:17:39;;;;;;;40.53;24.45;;;18.40;99.90;;;;;;5097872;28;20048;-89
2022/06/20 05:20:32;;;;;;;38.15;26.40;;;18.40;99.90;;;;;;5079047;28;20046;-87
2022/06/20 05:23:56;;;;;;;45.40;25.98;;;18.50;99.90;;;;;;5091157;28;20040;-87
2022/06/20 05:26:52;;;;;;;44.00;29.05;;;18.40;99.90;;;;;;4992421;28;20054;-87
2022/06/20 05:29:43;;;;;;;42.53;29.50;;;18.40;99.90;;;;;;5098740;28;20035;-88
2022/06/20 05:32:50;;;;;;;42.60;26.35;;;18.50;99.90;;;;;;5088887;28;20074;-87
2022/06/20 05:35:47;;;;;;;41.53;23.48;;;18.50;99.90;;;;;;5098315;28;20097;-91
2022/06/20 05:39:03;;;;;;;46.22;26.13;;;18.40;99.90;;;;;;5095786;28;20040;-86
2022/06/20 05:41:55;;;;;;;51.47;29.13;;;18.50;99.90;;;;;;5094014;28;20044;-87
2022/06/20 05:44:42;;;;;;;48.35;29.58;;;18.70;99.90;;;;;;5077411;28;20391;-87
2022/06/20 05:47:34;;;;;;;54.92;30.55;;;18.80;99.90;;;;;;5096534;28;20056;-91
2022/06/20 05:50:36;;;;;;;46.75;26.20;;;18.80;99.90;;;;;;5096360;28;20056;-91
2022/06/20 05:53:26;;;;;;;;;;;18.80;99.90;;;;;;5102955;28;20044;-91
2022/06/20 05:56:16;;;;;;;35.72;25.10;;;18.80;99.90;;;;;;5086575;28;19931;-90
2022/06/20 05:59:07;;;;;;;37.45;27.95;;;18.80;99.90;;;;;;5106532;28;20054;-91
2022/06/20 06:01:59;;;;;;;46.67;27.52;;;18.90;99.90;;;;;;5116556;28;20081;-91
2022/06/20 06:04:53;;;;;;;45.88;26.58;;;19.00;99.90;;;;;;5105241;28;20043;-91
2022/06/20 06:07:50;;;;;;;42.28;25.55;;;19.10;99.90;;;;;;5091063;28;20055;-89
2022/06/20 06:11:04;;;;;;;33.50;22.10;;;19.20;99.90;;;;;;5096020;28;20040;-88
2022/06/20 06:14:12;;;;;;;41.80;21.85;;;19.30;99.90;;;;;;5082568;28;20051;-91
2022/06/20 06:17:18;;;;;;;34.13;21.30;;;19.40;99.90;;;;;;5095665;28;20085;-90
2022/06/20 06:20:28;;;;;;;35.65;22.25;;;19.40;99.90;;;;;;5089128;28;20040;-92
2022/06/20 06:23:20;;;;;;;41.20;22.00;;;19.60;99.90;;;;;;5087190;28;20047;-91
2022/06/20 06:26:14;;;;;;;28.17;19.80;;;19.80;99.90;;;;;;5085678;28;20066;-90
2022/06/20 06:29:04;;;;;;;37.78;19.95;;;20.00;99.90;;;;;;5095154;28;20044;-89
2022/06/20 06:32:05;;;;;;;32.83;20.35;;;20.20;99.90;;;;;;5079188;28;20353;-90
2022/06/20 06:35:17;;;;;;;32.45;21.05;;;20.30;99.90;;;;;;5080114;28;20040;-89
2022/06/20 06:38:15;;;;;;;30.33;18.83;;;20.30;99.90;;;;;;5092499;28;20036;-85
2022/06/20 06:41:14;;;;;;;31.73;20.02;;;20.40;99.90;;;;;;5078555;28;20048;-90
2022/06/20 06:44:14;;;;;;;26.40;17.73;;;20.50;99.90;;;;;;5096326;28;20143;-90
2022/06/20 06:47:03;;;;;;;22.88;14.30;;;20.80;99.90;;;;;;5092936;28;20067;-88
2022/06/20 06:49:59;;;;;;;23.50;15.18;;;21.00;99.90;;;;;;5092867;28;20062;-92
2022/06/20 06:52:59;;;;;;;23.17;11.77;;;21.20;99.90;;;;;;5098630;28;20087;-90
2022/06/20 06:56:16;;;;;;;26.20;12.80;;;21.30;99.90;;;;;;5093701;28;20456;-90
2022/06/20 06:59:40;;;;;;;18.98;11.30;;;21.70;99.90;;;;;;5074804;28;20097;-92
2022/06/20 07:02:31;;;;;;;19.95;12.13;;;21.70;99.90;;;;;;5079351;28;20130;-93
2022/06/20 07:05:36;;;;;;;22.85;12.00;;;21.60;99.90;;;;;;5097914;28;20047;-91
2022/06/20 07:08:32;;;;;;;21.20;11.85;;;21.40;99.90;;;;;;5093725;28;20052;-92
2022/06/20 07:11:25;;;;;;;24.25;13.60;;;21.70;99.90;;;;;;5081524;28;20048;-89
2022/06/20 07:14:19;;;;;;;18.63;9.45;;;22.10;99.90;;;;;;5094951;28;20360;-90
2022/06/20 07:17:24;;;;;;;19.88;9.85;;;22.60;99.90;;;;;;5092759;28;20469;-91
2022/06/20 07:20:14;;;;;;;17.50;9.35;;;23.10;99.90;;;;;;5088564;28;20119;-90
2022/06/20 07:23:05;;;;;;;16.02;8.77;;;23.30;99.90;;;;;;5099564;28;20329;-87
2022/06/20 07:25:53;;;;;;;16.10;8.88;;;23.50;99.90;;;;;;5085590;28;20066;-90
2022/06/20 07:28:48;;;;;;;12.95;6.32;;;23.80;99.90;;;;;;5102532;28;20141;-90
2022/06/20 07:31:40;;;;;;;9.50;5.93;;;24.00;99.90;;;;;;5080931;28;20143;-88
2022/06/20 07:34:36;;;;;;;;;;;24.00;99.90;;;;;;5090517;28;20058;-88
2022/06/20 07:37:37;;;;;;;12.25;6.78;;;24.30;99.90;;;;;;5095893;28;19920;-88
2022/06/20 07:40:29;;;;;;;9.27;5.57;;;24.80;99.90;;;;;;5083709;28;20059;-92
2022/06/20 07:43:21;;;;;;;16.25;5.55;;;25.20;99.90;;;;;;5105494;28;20032;-92
2022/06/20 07:46:18;;;;;;;13.13;5.05;;;25.50;99.90;;;;;;5098615;28;20132;-92
2022/06/20 07:49:15;;;;;;;13.38;5.60;;;25.70;99.90;;;;;;5108504;28;20063;-87
2022/06/20 07:52:15;;;;;;;10.93;5.53;;;25.90;99.90;;;;;;5114440;27;20036;-85
2022/06/20 07:55:08;;;;;;;9.88;5.60;;;26.30;99.90;;;;;;5129856;27;20055;-92
2022/06/20 07:58:06;;;;;;;12.13;4.90;;;26.80;99.90;;;;;;5121321;28;20101;-94
2022/06/20 08:00:55;;;;;;;14.68;4.72;;;27.30;98.10;;;;;;5115222;28;20119;-91
2022/06/20 08:03:53;;;;;;;8.43;5.10;;;27.60;98.60;;;;;;5103147;28;20040;-90
2022/06/20 08:06:47;;;;;;;9.50;5.43;;;28.40;99.90;;;;;;5099114;28;20058;-93
2022/06/20 08:09:48;;;;;;;16.45;6.63;;;28.60;99.90;;;;;;5109883;28;20044;-92
2022/06/20 08:13:21;;;;;;;13.07;5.63;;;28.70;99.90;;;;;;5103049;28;20045;-93
2022/06/20 08:16:19;;;;;;;11.10;5.00;;;29.80;98.00;;;;;;5087777;28;20417;-92
2022/06/20 08:19:14;;;;;;;9.93;4.88;;;30.10;97.70;;;;;;5084935;28;20039;-90
2022/06/20 08:22:11;;;;;;;11.57;4.95;;;30.20;99.00;;;;;;5097185;28;20405;-92
2022/06/20 08:25:01;;;;;;;11.98;4.95;;;30.70;92.90;;;;;;5103457;28;20079;-91
2022/06/20 08:28:25;;;;;;;8.68;4.97;;;30.80;84.20;;;;;;5102411;28;20044;-91
2022/06/20 08:31:29;;;;;;;13.77;5.18;;;30.90;91.30;;;;;;5100870;28;20113;-93
2022/06/20 08:34:31;;;;;;;9.98;4.53;;;31.10;83.70;;;;;;5104086;28;20070;-90
2022/06/20 08:37:25;;;;;;;15.23;5.03;;;31.40;87.30;;;;;;5101511;28;20032;-94
2022/06/20 08:40:40;;;;;;;11.90;4.45;;;31.40;81.10;;;;;;5101644;28;20035;-84
2022/06/20 08:43:45;;;;;;;11.60;5.03;;;31.50;74.50;;;;;;5096420;28;20100;-82
2022/06/20 08:46:42;;;;;;;11.25;5.15;;;30.20;75.40;;;;;;5161866;22;21519;-91
2022/06/20 08:49:52;;;;;;;9.85;4.43;;;29.60;79.40;;;;;;5061414;28;20048;-89
2022/06/20 08:52:45;;;;;;;14.80;5.57;;;29.10;82.10;;;;;;5076458;28;20347;-89
2022/06/20 08:55:42;;;;;;;10.95;4.75;;;28.50;81.40;;;;;;5074186;28;20045;-90
2022/06/20 08:58:53;;;;;;;14.40;5.38;;;28.80;88.50;;;;;;5075443;28;20036;-92
2022/06/20 09:01:48;;;;;;;12.40;4.85;;;29.10;85.80;;;;;;5063224;28;20047;-88
2022/06/20 09:05:04;;;;;;;7.70;3.95;;;29.30;82.50;;;;;;5074274;28;20074;-88
2022/06/20 09:08:07;;;;;;;12.23;4.47;;;29.20;73.50;;;;;;5060680;28;20049;-90
2022/06/20 09:11:00;;;;;;;;;;;29.00;73.20;;;;;;5068891;28;20045;-88
2022/06/20 09:14:19;;;;;;;11.82;5.15;;;29.10;68.20;;;;;;5074666;28;19921;-89
2022/06/20 09:17:48;;;;;;;9.88;4.72;;;29.00;70.20;;;;;;5076577;28;20163;-87
2022/06/20 09:20:39;;;;;;;9.30;4.07;;;29.30;63.90;;;;;;5038297;28;20433;-90
2022/06/20 09:23:56;;;;;;;9.27;4.18;;;29.40;66.30;;;;;;5066080;28;20124;-85
2022/06/20 09:26:55;;;;;;;8.43;4.28;;;30.30;60.80;;;;;;5072678;28;20047;-88
2022/06/20 09:29:48;;;;;;;9.32;4.43;;;29.30;64.70;;;;;;5060609;28;20394;-90
2022/06/20 09:32:56;;;;;;;13.85;4.65;;;29.30;64.00;;;;;;5077482;28;20040;-87
2022/06/20 09:35:50;;;;;;;10.57;4.38;;;29.70;63.50;;;;;;5063228;28;20060;-87
2022/06/20 09:39:09;;;;;;;8.00;4.50;;;29.70;62.90;;;;;;5070981;28;20040;-89
2022/06/20 09:42:12;;;;;;;7.68;4.38;;;29.70;62.80;;;;;;5059684;28;20125;-88
2022/06/20 09:45:06;;;;;;;10.23;4.55;;;30.10;63.10;;;;;;5075407;28;20040;-87
2022/06/20 09:48:25;;;;;;;12.40;4.55;;;30.30;60.50;;;;;;5061669;28;20358;-89
2022/06/20 09:51:29;;;;;;;13.23;5.05;;;29.90;60.20;;;;;;5071051;28;20620;-86
2022/06/20 09:54:20;;;;;;;11.18;4.32;;;29.90;61.40;;;;;;5071480;28;20193;-91
2022/06/20 09:57:44;;;;;;;5.97;3.97;;;30.30;59.30;;;;;;5058991;28;20105;-89
2022/06/20 10:00:51;;;;;;;7.53;4.40;;;30.60;57.50;;;;;;5072659;28;20051;-90
2022/06/20 10:04:01;;;;;;;8.60;3.63;;;30.20;59.30;;;;;;5058833;28;20068;-87
2022/06/20 10:07:18;;;;;;;7.10;4.32;;;30.60;56.80;;;;;;5062377;28;20063;-86
2022/06/20 10:10:30;;;;;;;7.60;3.63;;;30.40;57.20;;;;;;5073420;28;20036;-87
2022/06/20 10:13:39;;;;;;;8.68;4.00;;;28.50;58.20;;;;;;5054121;28;20155;-89
2022/06/20 10:16:54;;;;;;;9.05;3.60;;;28.60;61.20;;;;;;5053824;28;20098;-88
2022/06/20 10:20:06;;;;;;;6.55;2.95;;;30.10;56.80;;;;;;5072109;28;20123;-87
2022/06/20 10:23:21;;;;;;;5.45;2.67;;;29.90;53.60;;;;;;5064529;28;20128;-89
2022/06/20 10:26:20;;;;;;;9.15;2.88;;;30.30;54.20;;;;;;5076797;28;20052;-85
2022/06/20 10:29:23;;;;;;;8.18;3.53;;;30.80;52.90;;;;;;5069009;28;20059;-88
2022/06/20 10:32:31;;;;;;;4.07;2.63;;;30.90;52.90;;;;;;5067255;28;20611;-87
2022/06/20 10:35:52;;;;;;;5.38;2.85;;;30.60;53.80;;;;;;5049299;28;20386;-89
2022/06/20 10:39:01;;;;;;;7.22;3.47;;;30.60;52.80;;;;;;5053723;28;20146;-87
2022/06/20 10:41:57;;;;;;;9.70;3.38;;;30.70;53.50;;;;;;5073229;28;20437;-84
2022/06/20 10:45:22;;;;;;;8.40;2.83;;;30.70;53.10;;;;;;5082647;28;20071;-89
2022/06/20 10:48:30;;;;;;;8.35;3.05;;;30.50;52.20;;;;;;5077352;28;20051;-86
2022/06/20 10:51:54;;;;;;;5.82;2.42;;;30.00;53.20;;;;;;5066520;28;20103;-88
2022/06/20 10:55:00;;;;;;;5.68;2.40;;;30.40;56.80;;;;;;5067656;28;20041;-90
2022/06/20 10:58:18;;;;;;;6.75;2.75;;;30.90;53.00;;;;;;5086953;28;20044;-84
2022/06/20 11:01:11;;;;;;;5.47;2.88;;;31.90;52.90;;;;;;5077334;28;20055;-88
2022/06/20 11:04:16;;;;;;;5.38;2.60;;;33.40;53.90;;;;;;5057263;28;20051;-87
2022/06/20 11:07:41;;;;;;;4.47;2.42;;;34.90;48.90;;;;;;5066080;28;20581;-87
2022/06/20 11:11:10;;;;;;;6.15;2.70;;;33.80;45.60;;;;;;5061935;28;20414;-85
2022/06/20 11:14:06;;;;;;;8.13;2.67;;;31.90;48.90;;;;;;5061446;28;20037;-83
2022/06/20 11:17:04;;;;;;;5.50;2.80;;;30.80;53.20;;;;;;5071843;28;20049;-84
2022/06/20 11:20:10;;;;;;;4.13;2.33;;;30.00;54.70;;;;;;5079506;28;20040;-87
2022/06/20 11:23:22;;;;;;;8.82;2.38;;;29.20;54.30;;;;;;5076503;28;20059;-87
2022/06/20 11:26:26;;;;;;;4.72;2.40;;;29.10;56.40;;;;;;5067773;28;20040;-87
2022/06/20 11:29:26;;;;;;;11.00;3.05;;;29.30;56.60;;;;;;5074686;28;20046;-84
2022/06/20 11:37:14;;;;;;;6.05;2.88;;;29.10;54.50;;;;;;5071662;28;20089;-88
2022/06/20 12:00:38;;;;;;;4.40;2.75;;;28.30;58.30;;;;;;5078338;28;20036;-91
2022/06/20 12:03:42;;;;;;;5.63;2.45;;;27.90;59.60;;;;;;5081450;28;20044;-87
2022/06/20 12:06:53;;;;;;;6.60;2.33;;;28.10;60.70;;;;;;5073484;28;20055;-87
2022/06/20 12:09:50;;;;;;;5.22;2.20;;;30.20;58.70;;;;;;5073427;28;20055;-87
2022/06/20 12:13:16;;;;;;;6.28;2.28;;;32.10;52.20;;;;;;5073621;28;20055;-84
2022/06/20 12:16:50;;;;;;;5.90;2.22;;;33.20;48.40;;;;;;4996913;28;20104;-87
2022/06/20 12:23:19;;;;;;;6.50;2.20;;;31.40;45.10;;;;;;5088048;28;20048;-83
2022/06/20 12:26:13;;;;;;;6.38;1.92;;;30.80;47.20;;;;;;5083145;28;20044;-82
2022/06/20 12:29:08;;;;;;;4.63;1.77;;;30.40;53.80;;;;;;5089507;27;20084;-84
2022/06/20 12:31:59;;;;;;;9.57;2.30;;;30.10;56.20;;;;;;5085701;28;20044;-81
2022/06/20 12:34:56;;;;;;;7.10;2.40;;;29.90;57.90;;;;;;5080443;28;20071;-87
2022/06/20 12:37:50;;;;;;;10.73;2.30;;;30.60;53.50;;;;;;5093909;28;20134;-82
2022/06/20 12:40:44;;;;;;;7.18;2.75;;;30.60;53.00;;;;;;5075225;28;20056;-85
2022/06/20 12:43:54;;;;;;;6.93;2.17;;;30.40;53.30;;;;;;5096070;28;20044;-85
2022/06/20 12:46:47;;;;;;;7.95;2.17;;;31.00;55.70;;;;;;5075431;28;20079;-89
2022/06/20 13:02:41;;;;;;;6.80;2.20;;;33.50;42.00;;;;;;5037373;28;20104;-86
2022/06/20 13:05:40;;;;;;;4.07;1.80;;;33.60;39.50;;;;;;5081853;28;20044;-86
2022/06/20 13:08:43;;;;;;;3.70;1.83;;;33.00;42.00;;;;;;5078147;28;20060;-90
2022/06/20 13:12:09;;;;;;;4.43;2.00;;;32.70;40.80;;;;;;5064173;28;20064;-92
2022/06/20 13:15:14;;;;;;;8.35;2.78;;;32.70;43.90;;;;;;5070627;28;20049;-87
2022/06/20 13:18:29;;;;;;;7.28;2.25;;;32.20;44.60;;;;;;5075062;28;20041;-89
2022/06/20 13:21:41;;;;;;;7.93;3.15;;;32.40;48.80;;;;;;5077572;28;20036;-89
2022/06/20 13:24:43;;;;;;;7.28;2.63;;;32.90;50.30;;;;;;5072336;28;20166;-91
2022/06/20 13:27:56;;;;;;;12.25;2.35;;;31.80;48.80;;;;;;5071402;28;20080;-84
2022/06/20 13:31:09;;;;;;;4.38;2.38;;;30.50;55.20;;;;;;5075751;28;20052;-90
2022/06/20 13:34:07;;;;;;;11.15;3.10;;;29.60;55.90;;;;;;5066579;28;20040;-87
2022/06/20 13:37:25;;;;;;;11.98;3.85;;;28.60;58.30;;;;;;5078849;28;20063;-81
2022/06/20 13:40:38;;;;;;;12.13;3.65;;;28.00;62.20;;;;;;5064493;28;20044;-86
2022/06/20 13:43:50;;;;;;;10.52;3.90;;;27.30;64.60;;;;;;5072443;28;20041;-84
2022/06/20 13:47:10;;;;;;;10.70;3.97;;;26.80;68.90;;;;;;5093954;28;20062;-84
2022/06/20 13:50:27;;;;;;;12.70;4.10;;;26.10;71.70;;;;;;5084032;28;20048;-83
2022/06/20 13:53:28;;;;;;;15.85;4.57;;;25.40;75.50;;;;;;5082561;28;20044;-88
2022/06/20 13:56:27;;;;;;;8.80;4.32;;;24.80;81.10;;;;;;5085300;28;20041;-88
2022/06/20 13:59:44;;;;;;;20.85;5.55;;;24.40;82.10;;;;;;5067329;28;20052;-89
2022/06/20 14:02:42;;;;;;;13.93;6.75;;;24.00;92.60;;;;;;5075142;28;20304;-87
2022/06/20 14:05:34;;;;;;;12.98;6.95;;;23.00;99.90;;;;;;5066785;28;20190;-86
2022/06/20 14:08:26;;;;;;;19.27;8.93;;;22.20;99.90;;;;;;5073764;28;20060;-80
2022/06/20 14:11:47;;;;;;;17.13;8.53;;;21.60;99.90;;;;;;5073266;28;20040;-85
2022/06/20 14:14:39;;;;;;;17.60;10.02;;;21.10;99.90;;;;;;5056063;28;20072;-87
2022/06/20 14:17:30;;;;;;;23.77;10.20;;;20.80;99.90;;;;;;5073163;28;20444;-89
2022/06/20 14:20:24;;;;;;;20.25;8.68;;;20.70;99.90;;;;;;5061592;28;20053;-85
2022/06/20 14:23:20;;;;;;;;;;;20.50;99.90;;;;;;5063984;28;20434;-84
2022/06/20 14:26:32;;;;;;;16.75;8.93;;;20.50;99.90;;;;;;5068287;28;19920;-83
2022/06/20 14:29:24;;;;;;;11.23;8.05;;;20.60;99.90;;;;;;5070196;28;20050;-84
2022/06/20 14:32:28;;;;;;;18.33;8.60;;;20.70;99.90;;;;;;5072287;28;20044;-83
2022/06/20 14:35:25;;;;;;;15.13;7.97;;;20.70;99.90;;;;;;5066224;28;20052;-84
2022/06/20 14:38:18;;;;;;;19.38;9.57;;;20.60;99.90;;;;;;5058176;28;20055;-85
2022/06/20 14:41:40;;;;;;;21.15;10.70;;;20.80;99.90;;;;;;5074154;28;20040;-91
2022/06/20 14:44:27;;;;;;;16.88;10.68;;;20.70;99.90;;;;;;5069076;28;20036;-85
2022/06/20 14:47:42;;;;;;;16.55;10.88;;;20.50;99.90;;;;;;5051997;28;20351;-86
2022/06/20 14:50:35;;;;;;;27.95;10.75;;;20.40;99.90;;;;;;5061332;28;20067;-88
2022/06/20 14:53:31;;;;;;;;;;;20.40;99.90;;;;;;5058820;28;20076;-87
2022/06/20 14:56:28;;;;;;;16.50;9.63;;;20.40;99.90;;;;;;5069840;28;19920;-87
2022/06/20 14:59:20;;;;;;;13.77;8.60;;;20.60;99.90;;;;;;5073414;28;20079;-88
2022/06/20 15:02:23;;;;;;;14.57;7.50;;;21.40;99.90;;;;;;5075118;28;20045;-89
2022/06/20 15:05:30;;;;;;;9.25;6.10;;;22.90;99.90;;;;;;5072481;28;20361;-88
2022/06/20 15:08:49;;;;;;;9.52;5.18;;;24.30;99.90;;;;;;5059811;28;20040;-90
2022/06/20 15:11:46;;;;;;;11.57;5.20;;;25.80;99.90;;;;;;5002238;28;20057;-86
2022/06/20 15:14:43;;;;;;;9.63;5.20;;;25.50;99.90;;;;;;5079075;28;20045;-87
2022/06/20 15:17:42;;;;;;;9.85;5.35;;;24.80;99.90;;;;;;5073985;28;20045;-87
2022/06/20 15:20:53;;;;;;;8.80;5.30;;;24.10;99.90;;;;;;5086678;28;20051;-87
2022/06/20 15:23:50;;;;;;;10.27;5.03;;;23.70;99.90;;;;;;5083633;28;20044;-88
2022/06/20 15:26:43;;;;;;;8.18;4.65;;;23.30;99.90;;;;;;5067080;28;20044;-90
2022/06/20 15:29:49;;;;;;;8.02;4.25;;;23.60;99.90;;;;;;5075792;28;20044;-89
2022/06/20 15:32:42;;;;;;;9.43;3.70;;;25.20;99.90;;;;;;5075470;28;20040;-89
2022/06/20 15:36:05;;;;;;;7.25;3.35;;;25.90;99.90;;;;;;5059992;28;20086;-89
2022/06/20 15:39:11;;;;;;;5.97;3.58;;;26.40;99.90;;;;;;5064581;28;20112;-89
2022/06/20 15:42:27;;;;;;;10.38;4.03;;;26.80;99.90;;;;;;5073700;28;20036;-91
2022/06/20 15:45:44;;;;;;;11.85;3.08;;;27.60;99.50;;;;;;5081933;28;20044;-92
2022/06/20 15:48:58;;;;;;;9.60;3.55;;;28.20;93.30;;;;;;5065910;28;20076;-89
2022/06/20 15:51:46;;;;;;;8.95;3.38;;;28.60;92.60;;;;;;5084589;28;20535;-87
2022/06/20 15:55:07;;;;;;;11.38;3.35;;;27.80;93.20;;;;;;5083901;28;20045;-90
2022/06/20 15:58:34;;;;;;;6.80;3.67;;;27.80;92.00;;;;;;5083387;28;20552;-90
2022/06/20 16:01:39;;;;;;;4.55;3.08;;;27.60;93.20;;;;;;5080410;28;20044;-86
2022/06/20 16:04:35;;;;;;;7.63;3.55;;;27.40;92.10;;;;;;5075782;28;20049;-88
2022/06/20 16:07:51;;;;;;;10.23;4.32;;;26.60;92.60;;;;;;5057542;28;20153;-85
2022/06/20 16:10:48;;;;;;;7.47;3.85;;;26.00;95.60;;;;;;5076359;28;20041;-90
2022/06/20 16:13:43;;;;;;;6.22;3.42;;;25.90;96.30;;;;;;5077711;28;20057;-88
2022/06/20 16:16:33;;;;;;;5.55;3.60;;;26.20;96.30;;;;;;5075662;28;20053;-90
2022/06/20 16:19:39;;;;;;;8.13;3.63;;;25.60;96.70;;;;;;5071157;28;20119;-89
2022/06/20 16:22:31;;;;;;;7.30;3.63;;;25.40;98.50;;;;;;5072551;28;20037;-88
2022/06/20 16:25:29;;;;;;;8.43;4.57;;;25.30;99.10;;;;;;5059715;28;20041;-89
2022/06/20 16:28:24;;;;;;;8.93;4.03;;;24.90;98.60;;;;;;5072496;28;20457;-87
2022/06/20 16:31:30;;;;;;;8.63;4.15;;;24.90;97.90;;;;;;5068200;28;20060;-85
2022/06/20 16:34:33;;;;;;;5.55;4.13;;;24.40;99.90;;;;;;5065582;28;20044;-90
2022/06/20 16:37:29;;;;;;;;;;;24.10;99.90;;;;;;5064733;28;20044;-89
2022/06/20 16:40:17;;;;;;;8.50;4.72;;;23.90;99.90;;;;;;5063935;28;20369;-88
2022/06/20 16:43:14;;;;;;;8.82;4.60;;;23.60;99.90;;;;;;5075049;28;20052;-88